This is the latest recevied weather packets stored in our database for station/object F5MAP-5. If no packets are shown the sender has not sent any weather packets the latest 10 day(s).
| Time | Temp. | Humidity | Pressure | Rain* | Wind** | Luminosity | Snow |
|---|---|---|---|---|---|---|---|
| 1777815131 | 26.11° C | 27% | 1014.1 hPa | 0 mm | - | 362 W/m² | - |
| 1777814531 | 26.67° C | 25% | 1013.8 hPa | 0 mm | - | 369 W/m² | - |
| 1777813931 | 27.78° C | 27% | 1013.6 hPa | 0 mm | - | 373 W/m² | - |
| 1777813331 | 28.33° C | 26% | 1013.7 hPa | 0 mm | - | 494 W/m² | - |
| 1777812732 | 28.33° C | 27% | 1013.7 hPa | 0 mm | - | 814 W/m² | - |
| 1777812132 | 28.33° C | 27% | 1013.6 hPa | 0 mm | - | 687 W/m² | - |
| 1777811532 | 28.33° C | 28% | 1013.4 hPa | 0 mm | - | 865 W/m² | - |
| 1777810932 | 28.33° C | 28% | 1013.5 hPa | 0 mm | - | 369 W/m² | - |
| 1777810332 | 28.33° C | 28% | 1013.5 hPa | 0 mm | - | 944 W/m² | - |
| 1777809732 | 28.33° C | 27% | 1013.4 hPa | 0 mm | - | 800 W/m² | - |
| 1777809132 | 27.78° C | 28% | 1013.5 hPa | 0 mm | - | 856 W/m² | - |
| 1777808531 | 27.78° C | 28% | 1013.4 hPa | 0 mm | - | 638 W/m² | - |
| 1777807931 | 27.22° C | 31% | 1013.5 hPa | 0 mm | - | 807 W/m² | - |
| 1777807332 | 26.11° C | 35% | 1013.6 hPa | 0 mm | - | 838 W/m² | - |
| 1777806732 | 25.56° C | 38% | 1013.7 hPa | 0 mm | - | 807 W/m² | - |
| 1777806132 | 24.44° C | 41% | 1013.8 hPa | 0 mm | - | 754 W/m² | - |
| 1777805532 | 23.33° C | 42% | 1014 hPa | 0 mm | - | 684 W/m² | - |
| 1777804932 | 22.78° C | 45% | 1014.1 hPa | 0 mm | - | 524 W/m² | - |
| 1777804331 | 22.22° C | 49% | 1014.2 hPa | 0 mm | - | 476 W/m² | - |
| 1777803731 | 21.67° C | 51% | 1014.2 hPa | 0 mm | - | 439 W/m² | - |
| 1777803131 | 21.67° C | 50% | 1014.2 hPa | 0 mm | - | 336 W/m² | - |
| 1777802531 | 21.11° C | 50% | 1014.4 hPa | 0 mm | - | 302 W/m² | - |
| 1777801932 | 21.11° C | 50% | 1014.3 hPa | 0 mm | - | 262 W/m² | - |
| 1777801333 | 21.11° C | 50% | 1014.5 hPa | 0 mm | - | 304 W/m² | - |
| 1777800731 | 20.56° C | 52% | 1014.6 hPa | 0 mm | - | 359 W/m² | - |
* Rain latest hour (hover to see other rain measurements)
** Current wind speed in m/s (hover to see current wind gust speed)